createdAt,value
2022-12-18T00:01:24.796Z,22.63
2022-12-18T00:03:52.662Z,25.17
2022-12-18T00:06:20.028Z,21.33
2022-12-18T00:08:46.806Z,23.47
2022-12-18T00:11:17.055Z,23.93
2022-12-18T00:13:44.457Z,21.43
2022-12-18T00:16:14.993Z,25.53
2022-12-18T00:18:42.919Z,20.70
2022-12-18T00:21:11.616Z,22.77
2022-12-18T00:23:39.532Z,21.77
2022-12-18T00:26:10.881Z,22.13
2022-12-18T00:28:37.568Z,20.07
2022-12-18T00:31:06.603Z,23.60
2022-12-18T00:33:33.327Z,25.17
2022-12-18T00:36:04.364Z,21.23
2022-12-18T00:38:31.079Z,20.83
2022-12-18T00:40:57.607Z,22.40
2022-12-18T00:43:24.339Z,21.73
2022-12-18T00:45:51.330Z,21.53
2022-12-18T00:48:18.019Z,24.30
2022-12-18T00:50:44.887Z,21.47
2022-12-18T00:53:11.651Z,21.83
2022-12-18T00:55:39.820Z,21.60
2022-12-18T00:58:06.485Z,23.27
2022-12-18T01:00:33.043Z,22.23
2022-12-18T01:02:59.896Z,23.97
2022-12-18T01:05:26.986Z,22.10
2022-12-18T01:07:53.612Z,21.57
2022-12-18T01:10:20.145Z,20.30
2022-12-18T01:12:46.723Z,20.43
2022-12-18T01:15:15.266Z,20.50
2022-12-18T01:17:41.908Z,19.57
2022-12-18T01:20:09.961Z,21.70
2022-12-18T01:22:37.298Z,21.13
2022-12-18T01:25:05.325Z,23.23
2022-12-18T01:27:32.545Z,20.50
2022-12-18T01:29:59.043Z,19.63
2022-12-18T01:32:25.693Z,20.70
2022-12-18T01:34:52.207Z,18.27
2022-12-18T01:37:18.744Z,18.73
2022-12-18T01:39:45.283Z,17.27
2022-12-18T01:42:16.664Z,19.73
2022-12-18T01:45:04.878Z,20.27
2022-12-18T01:47:37.447Z,19.77
2022-12-18T01:50:14.618Z,20.33
2022-12-18T01:52:43.886Z,18.77
2022-12-18T01:55:12.194Z,17.83
2022-12-18T01:57:40.214Z,22.87
2022-12-18T02:00:13.059Z,19.87
2022-12-18T02:02:42.035Z,18.80
2022-12-18T02:05:10.188Z,19.80
2022-12-18T02:07:51.993Z,20.83
2022-12-18T02:10:30.132Z,20.00
2022-12-18T02:13:22.068Z,20.43
2022-12-18T02:16:11.665Z,18.63
2022-12-18T02:18:42.121Z,20.90
2022-12-18T02:21:21.640Z,19.60
2022-12-18T02:24:05.847Z,18.07
2022-12-18T02:26:52.502Z,16.67
2022-12-18T02:29:28.502Z,20.40
2022-12-18T02:31:58.926Z,20.13
2022-12-18T02:34:29.393Z,17.83
2022-12-18T02:36:58.579Z,19.67
2022-12-18T02:39:28.297Z,19.23
2022-12-18T02:41:55.032Z,21.70
2022-12-18T02:44:21.683Z,20.13
2022-12-18T02:46:52.696Z,16.50
2022-12-18T02:49:34.417Z,16.80
2022-12-18T02:52:13.489Z,20.93
2022-12-18T02:54:44.694Z,18.93
2022-12-18T02:57:29.132Z,18.17
2022-12-18T03:00:11.382Z,19.03
2022-12-18T03:03:04.156Z,21.30
2022-12-18T03:05:51.858Z,19.10
2022-12-18T03:08:25.192Z,18.57
2022-12-18T03:11:04.764Z,22.23
2022-12-18T03:13:37.143Z,21.10
2022-12-18T03:16:10.216Z,18.90
2022-12-18T03:18:43.573Z,21.10
2022-12-18T03:21:13.822Z,18.83
2022-12-18T03:23:49.291Z,18.63
2022-12-18T03:26:20.484Z,21.20
2022-12-18T03:28:52.725Z,20.90
2022-12-18T03:31:22.912Z,23.30
2022-12-18T03:34:12.395Z,18.33
2022-12-18T03:36:38.966Z,18.77
2022-12-18T03:39:05.659Z,19.80
2022-12-18T03:41:45.042Z,17.40
2022-12-18T03:44:29.543Z,18.83
2022-12-18T03:46:59.981Z,17.90
2022-12-18T03:49:48.171Z,17.87
2022-12-18T03:52:29.192Z,18.70
2022-12-18T03:54:58.787Z,16.47
2022-12-18T03:57:30.689Z,19.17
2022-12-18T04:00:01.680Z,20.33
2022-12-18T04:02:29.892Z,18.47
2022-12-18T04:05:01.556Z,18.93
2022-12-18T04:07:28.673Z,17.47
2022-12-18T04:09:59.408Z,17.67
2022-12-18T04:12:27.276Z,17.13
2022-12-18T04:14:53.783Z,16.70
2022-12-18T04:17:20.499Z,16.47
2022-12-18T04:19:47.001Z,18.13
2022-12-18T04:22:13.797Z,20.10
2022-12-18T04:24:40.295Z,16.63
2022-12-18T04:27:07.110Z,18.20
2022-12-18T04:29:33.622Z,15.33
2022-12-18T04:32:00.172Z,15.73
2022-12-18T04:34:26.820Z,22.77
2022-12-18T04:36:53.373Z,16.03
2022-12-18T04:39:19.882Z,16.43
2022-12-18T04:41:46.407Z,18.43
2022-12-18T04:44:12.931Z,17.40
2022-12-18T04:46:39.559Z,19.07
2022-12-18T04:49:06.202Z,17.83
2022-12-18T04:51:32.753Z,18.90
2022-12-18T04:53:59.216Z,16.73
2022-12-18T04:56:25.696Z,17.73
2022-12-18T04:58:52.243Z,18.40
2022-12-18T05:01:19.262Z,18.53
2022-12-18T05:03:46.400Z,16.20
2022-12-18T05:06:13.037Z,17.83
2022-12-18T05:08:39.786Z,17.30
2022-12-18T05:11:08.625Z,14.60
2022-12-18T05:13:36.594Z,17.77
2022-12-18T05:16:04.154Z,17.63
2022-12-18T05:18:31.427Z,19.43
2022-12-18T05:20:57.965Z,19.00
2022-12-18T05:23:25.716Z,19.80
2022-12-18T05:25:57.458Z,16.03
2022-12-18T05:28:25.709Z,18.77
2022-12-18T05:30:54.245Z,16.10
2022-12-18T05:33:23.149Z,18.47
2022-12-18T05:35:57.233Z,16.60
2022-12-18T05:38:25.673Z,17.77
2022-12-18T05:40:52.984Z,16.33
2022-12-18T05:43:21.543Z,17.67
2022-12-18T05:45:48.922Z,14.43
2022-12-18T05:48:16.025Z,14.23
2022-12-18T05:50:46.480Z,14.63
2022-12-18T05:53:14.715Z,13.00
2022-12-18T05:55:42.637Z,14.67
2022-12-18T05:58:10.776Z,16.00
2022-12-18T06:00:42.356Z,16.83
2022-12-18T06:03:10.636Z,14.70
2022-12-18T06:05:42.800Z,16.20
2022-12-18T06:08:10.001Z,17.50
2022-12-18T06:10:36.695Z,15.37
2022-12-18T06:13:03.636Z,16.37
2022-12-18T06:15:30.135Z,15.97
2022-12-18T06:17:56.732Z,15.20
2022-12-18T06:20:23.411Z,15.30
2022-12-18T06:22:50.230Z,14.63
2022-12-18T06:25:17.099Z,15.43
2022-12-18T06:27:44.472Z,15.33
2022-12-18T06:30:11.904Z,16.10
2022-12-18T06:32:39.114Z,18.37
2022-12-18T06:35:06.229Z,17.60
2022-12-18T06:37:32.871Z,16.07
2022-12-18T06:39:59.442Z,16.27
2022-12-18T06:42:26.213Z,14.90
2022-12-18T06:44:52.801Z,17.27
2022-12-18T06:47:19.654Z,17.23
2022-12-18T06:49:46.544Z,15.90
2022-12-18T06:52:13.026Z,14.43
2022-12-18T06:54:39.559Z,16.30
2022-12-18T06:57:06.066Z,13.37
2022-12-18T06:59:32.611Z,14.50
2022-12-18T07:01:59.268Z,13.77
2022-12-18T07:04:33.065Z,16.40
2022-12-18T07:06:59.555Z,16.47
2022-12-18T07:09:26.206Z,13.57
2022-12-18T07:11:53.391Z,13.67
2022-12-18T07:14:20.234Z,13.03
2022-12-18T07:16:47.044Z,14.00
2022-12-18T07:19:13.605Z,14.63
2022-12-18T07:21:40.315Z,12.07
2022-12-18T07:24:07.252Z,14.57
2022-12-18T07:26:34.134Z,17.40
2022-12-18T07:29:00.665Z,11.83
2022-12-18T07:31:27.741Z,15.87
2022-12-18T07:33:54.385Z,14.03
2022-12-18T07:36:21.065Z,14.17
2022-12-18T07:38:48.560Z,15.37
2022-12-18T07:41:15.571Z,16.73
2022-12-18T07:43:43.498Z,14.67
2022-12-18T07:46:13.201Z,14.40
2022-12-18T07:48:41.208Z,14.53
2022-12-18T07:51:08.706Z,17.90
2022-12-18T07:53:37.008Z,16.87
2022-12-18T07:56:26.488Z,14.33
2022-12-18T07:58:53.496Z,15.33
2022-12-18T08:01:20.577Z,14.30
2022-12-18T08:03:47.897Z,13.03
2022-12-18T08:06:15.094Z,17.70
2022-12-18T08:08:43.215Z,11.50
2022-12-18T08:11:10.007Z,17.03
2022-12-18T08:13:36.679Z,14.90
2022-12-18T08:16:06.515Z,16.23
2022-12-18T08:18:34.357Z,15.13
2022-12-18T08:21:22.162Z,16.03
2022-12-18T08:23:51.319Z,15.97
2022-12-18T08:26:18.766Z,16.83
2022-12-18T08:28:45.723Z,15.27
2022-12-18T08:31:12.756Z,15.53
2022-12-18T08:33:40.867Z,12.93
2022-12-18T08:36:10.441Z,23.03
2022-12-18T08:38:37.053Z,16.87
2022-12-18T08:41:09.169Z,15.77
2022-12-18T08:43:54.604Z,14.23
2022-12-18T08:46:23.257Z,14.60
2022-12-18T08:48:52.121Z,16.83
2022-12-18T08:51:19.260Z,12.77
2022-12-18T08:53:46.170Z,12.57
2022-12-18T08:56:14.201Z,12.77
2022-12-18T08:58:41.360Z,12.83
2022-12-18T09:01:11.154Z,13.40
2022-12-18T09:03:38.802Z,16.20
2022-12-18T09:06:06.105Z,14.83
2022-12-18T09:08:32.616Z,14.43
2022-12-18T09:10:59.143Z,16.70
2022-12-18T09:13:25.641Z,13.70
2022-12-18T09:15:54.419Z,13.07
2022-12-18T09:18:22.570Z,13.43
2022-12-18T09:20:49.242Z,11.97
2022-12-18T09:23:15.766Z,12.20
2022-12-18T09:25:42.577Z,15.63
2022-12-18T09:28:17.840Z,13.67
2022-12-18T09:30:50.664Z,13.03
2022-12-18T09:33:18.042Z,13.73
2022-12-18T09:35:45.971Z,14.87
2022-12-18T09:38:15.040Z,14.90
2022-12-18T09:40:53.001Z,13.23
2022-12-18T09:43:44.372Z,13.17
2022-12-18T09:46:18.885Z,12.57
2022-12-18T09:48:49.143Z,15.03
2022-12-18T09:51:36.175Z,13.43
2022-12-18T09:54:12.676Z,11.53
2022-12-18T09:56:43.037Z,13.73
2022-12-18T09:59:22.514Z,17.63
2022-12-18T10:01:49.328Z,13.10
2022-12-18T10:04:16.045Z,14.33
2022-12-18T10:06:53.745Z,11.93
2022-12-18T10:09:25.878Z,15.53
2022-12-18T10:12:19.772Z,14.23
2022-12-18T10:15:03.280Z,12.90
2022-12-18T10:17:44.195Z,12.60
2022-12-18T10:20:14.189Z,13.50
2022-12-18T10:22:40.634Z,16.17
2022-12-18T10:25:20.845Z,13.60
2022-12-18T10:27:47.716Z,10.70
2022-12-18T10:30:21.230Z,14.07
2022-12-18T10:32:48.200Z,13.97
2022-12-18T10:35:32.709Z,11.60
2022-12-18T10:38:07.741Z,10.40
2022-12-18T10:40:50.601Z,13.83
2022-12-18T10:43:21.785Z,12.07
2022-12-18T10:46:01.276Z,12.47
2022-12-18T10:48:50.067Z,12.87
2022-12-18T10:51:27.496Z,15.30
2022-12-18T10:54:06.473Z,14.10
2022-12-18T10:56:36.715Z,13.40
2022-12-18T10:59:06.117Z,11.60
2022-12-18T11:01:56.577Z,11.17
2022-12-18T11:04:28.907Z,13.70
2022-12-18T11:06:59.085Z,11.87
2022-12-18T11:09:30.098Z,12.93
2022-12-18T11:12:00.126Z,14.67
2022-12-18T11:14:47.542Z,11.07
2022-12-18T11:17:26.100Z,13.27
2022-12-18T11:19:58.845Z,11.37
2022-12-18T11:22:28.914Z,11.93
2022-12-18T11:27:58.400Z,11.30
2022-12-18T11:30:35.623Z,12.53
2022-12-18T11:33:18.621Z,13.00
2022-12-18T11:36:03.749Z,11.80
2022-12-18T11:38:41.268Z,10.83
2022-12-18T11:42:02.338Z,10.17
2022-12-18T11:44:59.294Z,10.73
2022-12-18T11:47:34.946Z,9.93
2022-12-18T11:50:04.221Z,9.27
2022-12-18T11:52:41.967Z,11.80
2022-12-18T11:55:17.250Z,9.73
2022-12-18T11:57:49.628Z,12.10
2022-12-18T12:00:25.273Z,11.30
2022-12-18T12:03:21.816Z,10.10
2022-12-18T12:06:11.656Z,12.43
2022-12-18T12:08:45.395Z,9.73
2022-12-18T12:11:29.064Z,11.13
2022-12-18T12:14:04.414Z,11.27
2022-12-18T12:16:42.746Z,11.33
2022-12-18T12:19:35.080Z,11.63
2022-12-18T12:22:19.497Z,11.73
2022-12-18T12:25:28.062Z,11.73
2022-12-18T12:28:09.075Z,13.83
2022-12-18T12:31:17.051Z,10.93
2022-12-18T12:34:02.205Z,9.80
2022-12-18T12:36:54.935Z,10.27
2022-12-18T12:39:31.505Z,9.93
2022-12-18T12:42:17.113Z,12.77
2022-12-18T12:44:54.213Z,13.77
2022-12-18T12:47:32.303Z,14.30
2022-12-18T12:50:03.330Z,18.17
2022-12-18T12:52:43.661Z,14.60
2022-12-18T12:55:18.517Z,14.73
2022-12-18T12:58:29.208Z,13.20
2022-12-18T13:04:07.904Z,12.97
2022-12-18T13:06:51.338Z,12.97
2022-12-18T13:09:18.168Z,13.37
2022-12-18T13:12:06.532Z,14.30
2022-12-18T13:13:43.747Z,14.83
2022-12-18T13:14:39.307Z,13.70
2022-12-18T13:17:21.972Z,13.43
2022-12-18T13:20:10.835Z,12.30
2022-12-18T13:22:37.421Z,16.13
2022-12-18T13:25:24.726Z,13.90
2022-12-18T13:27:59.095Z,12.10
2022-12-18T13:30:42.867Z,12.07
2022-12-18T13:33:15.924Z,10.90
2022-12-18T13:36:09.803Z,11.63
2022-12-18T13:38:39.208Z,9.83
2022-12-18T13:41:24.917Z,8.97
2022-12-18T13:43:54.593Z,8.17
2022-12-18T13:46:22.037Z,9.93
2022-12-18T13:49:06.246Z,9.27
2022-12-18T13:51:35.382Z,8.47
2022-12-18T13:54:22.348Z,8.07
2022-12-18T13:56:50.071Z,14.63
2022-12-18T13:59:33.947Z,14.63
2022-12-18T14:02:06.831Z,15.40
2022-12-18T14:04:36.189Z,16.47
2022-12-18T14:07:14.960Z,19.83
2022-12-18T14:09:47.053Z,20.03
2022-12-18T14:12:43.494Z,17.57
2022-12-18T14:15:21.716Z,19.30
2022-12-18T14:17:48.910Z,18.03
2022-12-18T14:20:16.600Z,19.10
2022-12-18T14:22:48.565Z,19.50
2022-12-18T14:25:21.634Z,20.27
2022-12-18T14:27:50.717Z,19.27
2022-12-18T14:30:47.071Z,19.13
2022-12-18T14:33:24.880Z,16.23
2022-12-18T14:36:02.901Z,19.47
2022-12-18T14:38:35.813Z,17.67
2022-12-18T14:41:12.619Z,19.37
2022-12-18T14:43:41.948Z,20.40
2022-12-18T14:46:27.381Z,23.07
2022-12-18T14:48:54.592Z,20.40
2022-12-18T14:51:23.669Z,25.73
2022-12-18T14:53:59.446Z,21.20
2022-12-18T14:56:28.864Z,20.13
2022-12-18T14:59:01.321Z,21.83
2022-12-18T15:01:38.748Z,24.07
2022-12-18T15:04:24.268Z,26.53
2022-12-18T15:07:04.519Z,23.83
2022-12-18T15:09:31.184Z,24.57
2022-12-18T15:11:59.884Z,27.47
2022-12-18T15:14:41.341Z,27.83
2022-12-18T15:17:21.302Z,25.13
2022-12-18T15:19:52.414Z,25.43
2022-12-18T15:22:35.613Z,27.10
2022-12-18T15:25:03.446Z,29.17
2022-12-18T15:27:36.637Z,27.57
2022-12-18T15:30:09.128Z,25.97
2022-12-18T15:32:37.565Z,28.63
2022-12-18T15:35:19.703Z,29.17
2022-12-18T15:37:46.622Z,26.60
2022-12-18T15:40:17.554Z,28.90
2022-12-18T15:43:02.664Z,28.73
2022-12-18T15:45:29.177Z,28.97
2022-12-18T15:47:57.023Z,31.60
2022-12-18T15:50:23.706Z,33.47
2022-12-18T15:52:53.144Z,33.23
2022-12-18T15:55:41.114Z,32.47
2022-12-18T15:58:10.161Z,38.07
2022-12-18T16:00:39.951Z,30.47
2022-12-18T16:03:07.018Z,33.20
2022-12-18T16:05:34.143Z,34.37
2022-12-18T16:08:00.617Z,31.53
2022-12-18T16:10:27.550Z,33.43
2022-12-18T16:12:54.113Z,32.83
2022-12-18T16:15:24.533Z,33.60
2022-12-18T16:17:52.871Z,37.13
2022-12-18T16:20:23.525Z,34.27
2022-12-18T16:22:50.746Z,35.20
2022-12-18T16:25:26.147Z,35.47
2022-12-18T16:27:55.109Z,34.83
2022-12-18T16:30:28.747Z,33.77
2022-12-18T16:32:59.476Z,33.90
2022-12-18T16:35:27.394Z,31.00
2022-12-18T16:37:53.952Z,36.73
2022-12-18T16:40:20.911Z,33.17
2022-12-18T16:42:47.615Z,33.20
2022-12-18T16:45:17.851Z,33.00
2022-12-18T16:47:45.153Z,33.73
2022-12-18T16:50:12.340Z,40.03
2022-12-18T16:52:39.201Z,35.43
2022-12-18T16:55:06.179Z,32.57
2022-12-18T16:57:32.759Z,36.30
2022-12-18T17:00:04.720Z,33.00
2022-12-18T17:02:32.631Z,33.77
2022-12-18T17:05:00.048Z,32.70
2022-12-18T17:07:28.337Z,33.93
2022-12-18T17:09:55.496Z,32.40
2022-12-18T17:12:23.013Z,34.87
2022-12-18T17:14:49.851Z,30.97
2022-12-18T17:17:22.224Z,35.03
2022-12-18T17:19:49.545Z,31.50
2022-12-18T17:22:16.103Z,31.53
2022-12-18T17:24:42.578Z,31.17
2022-12-18T17:27:09.088Z,31.07
2022-12-18T17:29:35.902Z,30.47
2022-12-18T17:32:02.499Z,33.83
2022-12-18T17:34:29.992Z,31.43
2022-12-18T17:36:57.299Z,31.70
2022-12-18T17:39:23.814Z,34.90
2022-12-18T17:41:50.647Z,28.93
2022-12-18T17:44:17.719Z,32.03
2022-12-18T17:46:44.921Z,31.47
2022-12-18T17:49:12.132Z,30.20
2022-12-18T17:51:38.996Z,33.67
2022-12-18T17:54:05.878Z,29.00
2022-12-18T17:56:33.237Z,33.30
2022-12-18T17:58:59.918Z,28.13
2022-12-18T18:01:27.123Z,31.53
2022-12-18T18:03:56.111Z,28.50
2022-12-18T18:06:23.924Z,31.77
2022-12-18T18:08:50.874Z,29.67
2022-12-18T18:11:38.580Z,33.97
2022-12-18T18:14:10.373Z,30.30
2022-12-18T18:16:59.206Z,31.33
2022-12-18T18:19:31.601Z,31.77
2022-12-18T18:21:58.130Z,28.07
2022-12-18T18:24:25.904Z,32.67
2022-12-18T18:26:53.447Z,29.47
2022-12-18T18:29:29.202Z,26.73
2022-12-18T18:31:56.904Z,31.23
2022-12-18T18:34:25.867Z,27.97
2022-12-18T18:36:52.758Z,24.63
2022-12-18T18:39:19.826Z,28.80
2022-12-18T18:41:48.340Z,28.50
2022-12-18T18:44:20.527Z,25.97
2022-12-18T18:46:52.572Z,26.57
2022-12-18T18:49:19.053Z,26.87
2022-12-18T18:51:45.541Z,23.33
2022-12-18T18:54:12.139Z,23.33
2022-12-18T18:57:11.650Z,29.43
2022-12-18T18:59:31.573Z,24.20
2022-12-18T19:02:00.051Z,24.50
2022-12-18T19:04:30.729Z,25.43
2022-12-18T19:06:57.331Z,22.97
2022-12-18T19:09:24.754Z,25.10
2022-12-18T19:12:10.398Z,23.47
2022-12-18T19:14:36.934Z,23.73
2022-12-18T19:17:03.458Z,25.37
2022-12-18T19:19:30.923Z,21.00
2022-12-18T19:21:57.626Z,25.33
2022-12-18T19:24:24.129Z,24.20
2022-12-18T19:26:52.152Z,22.13
2022-12-18T19:29:20.715Z,24.37
2022-12-18T19:31:47.305Z,26.07
2022-12-18T19:34:13.997Z,23.20
2022-12-18T19:36:41.710Z,22.17
2022-12-18T19:39:14.945Z,22.20
2022-12-18T19:41:42.943Z,20.77
2022-12-18T19:44:12.173Z,21.50
2022-12-18T19:46:40.589Z,18.87
2022-12-18T19:49:09.636Z,24.87
2022-12-18T19:51:36.643Z,20.13
2022-12-18T19:54:03.313Z,20.90
2022-12-18T19:56:33.338Z,18.03
2022-12-18T19:59:00.134Z,22.63
2022-12-18T20:01:28.255Z,21.00
2022-12-18T20:03:56.899Z,17.20
2022-12-18T20:06:35.795Z,21.77
2022-12-18T20:09:05.750Z,18.23
2022-12-18T20:11:41.634Z,19.83
2022-12-18T20:14:11.022Z,22.53
2022-12-18T20:16:38.476Z,18.70
2022-12-18T20:19:06.872Z,18.00
2022-12-18T20:21:34.156Z,20.87
2022-12-18T20:24:02.225Z,20.63
2022-12-18T20:26:29.103Z,21.90
2022-12-18T20:28:56.723Z,24.13
2022-12-18T20:31:24.156Z,20.13
2022-12-18T20:33:53.255Z,22.80
2022-12-18T20:36:23.397Z,20.87
2022-12-18T20:38:58.180Z,21.73
2022-12-18T20:41:30.565Z,21.37
2022-12-18T20:44:23.219Z,20.00
2022-12-18T20:46:56.632Z,21.67
2022-12-18T20:49:25.879Z,18.30
2022-12-18T20:51:57.806Z,23.53
2022-12-18T20:54:26.343Z,21.33
2022-12-18T20:56:52.948Z,21.37
2022-12-18T20:59:19.981Z,22.87
2022-12-18T21:01:48.259Z,22.30
2022-12-18T21:04:18.338Z,21.77
2022-12-18T21:06:50.810Z,21.33
2022-12-18T21:09:19.249Z,22.30
2022-12-18T21:12:04.766Z,21.70
2022-12-18T21:14:31.375Z,19.63
2022-12-18T21:17:01.036Z,21.87
2022-12-18T21:19:28.305Z,22.00
2022-12-18T21:21:56.886Z,19.47
2022-12-18T21:24:24.582Z,21.47
2022-12-18T21:26:51.801Z,19.17
2022-12-18T21:29:21.526Z,21.10
2022-12-18T21:31:49.074Z,21.20
2022-12-18T21:34:21.030Z,21.60
2022-12-18T21:36:48.053Z,21.40
2022-12-18T21:39:15.216Z,23.10
2022-12-18T21:42:01.342Z,20.13
2022-12-18T21:44:28.256Z,24.60
2022-12-18T21:47:00.604Z,21.37
2022-12-18T21:49:30.296Z,21.13
2022-12-18T21:51:59.315Z,24.13
2022-12-18T21:54:27.761Z,23.57
2022-12-18T21:56:55.803Z,21.20
2022-12-18T21:59:23.440Z,23.20
2022-12-18T22:01:51.185Z,19.90
2022-12-18T22:04:19.386Z,21.73
2022-12-18T22:06:47.352Z,20.43
2022-12-18T22:09:16.727Z,20.70
2022-12-18T22:12:05.084Z,22.90
2022-12-18T22:14:31.749Z,21.17
2022-12-18T22:16:58.432Z,20.53
2022-12-18T22:19:25.623Z,21.60
2022-12-18T22:21:52.822Z,21.70
2022-12-18T22:24:24.722Z,21.93
2022-12-18T22:27:01.731Z,21.77
2022-12-18T22:29:48.261Z,21.70
2022-12-18T22:32:17.089Z,21.37
2022-12-18T22:34:51.392Z,19.80
2022-12-18T22:37:17.922Z,22.30
2022-12-18T22:39:44.476Z,24.60
2022-12-18T22:42:11.009Z,19.97
2022-12-18T22:44:38.093Z,22.10
2022-12-18T22:47:06.148Z,21.60
2022-12-18T22:49:34.881Z,18.53
2022-12-18T22:52:03.394Z,20.90
2022-12-18T22:54:30.252Z,19.53
2022-12-18T22:56:57.089Z,19.13
2022-12-18T22:59:24.043Z,18.80
2022-12-18T23:01:54.933Z,21.23
2022-12-18T23:04:30.170Z,21.70
2022-12-18T23:07:03.304Z,21.33
2022-12-18T23:09:29.808Z,20.00
2022-12-18T23:11:56.351Z,19.83
2022-12-18T23:14:22.866Z,22.20
2022-12-18T23:16:49.396Z,20.80
2022-12-18T23:19:18.722Z,23.87
2022-12-18T23:21:45.282Z,20.30
2022-12-18T23:24:11.881Z,19.70
2022-12-18T23:26:38.566Z,20.40
2022-12-18T23:29:06.058Z,21.67
2022-12-18T23:31:35.902Z,20.13
2022-12-18T23:34:05.237Z,21.67
2022-12-18T23:36:35.856Z,18.77
2022-12-18T23:39:12.859Z,21.57
2022-12-18T23:41:54.633Z,22.03
2022-12-18T23:44:21.143Z,19.73
2022-12-18T23:46:47.747Z,21.03
2022-12-18T23:49:14.401Z,22.37
2022-12-18T23:51:40.931Z,21.10
2022-12-18T23:54:09.018Z,19.00
2022-12-18T23:56:35.896Z,20.73
2022-12-18T23:59:02.439Z,19.90
